Terminal Aerodrome Forecast
Issued by NWS Paducah, KY

Home | Current Version | Previous Version | Text Only | Print | Product List | Glossary On
Versions: 1 2 3 4 5 6 7 8 9 10 11 12 13 14 15 16
027
FTUS43 KPAH 251720
TAFPAH
TAF
KPAH 251720Z 2518/2618 26007KT P6SM FEW040
     FM260000 00000KT P6SM SCT250
     FM260900 00000KT 4SM BR SCT250
     FM261400 14003KT P6SM SCT050 BKN100=

USA.gov is the U.S. government's official web portal to all federal, state and local government web resources and services.